createdAt,value
2017-01-11T00:00:38.167Z,0.07
2017-01-11T00:01:38.121Z,-0.01
2017-01-11T00:02:38.086Z,-0.05
2017-01-11T00:03:38.035Z,0
2017-01-11T00:04:37.995Z,-0.05
2017-01-11T00:05:37.949Z,-0.01
2017-01-11T00:06:37.908Z,-0.04
2017-01-11T00:07:37.866Z,-0.04
2017-01-11T00:08:37.822Z,-0.04
2017-01-11T00:09:37.784Z,-0.05
2017-01-11T00:10:37.736Z,-0.04
2017-01-11T00:11:37.727Z,-0.08
2017-01-11T00:12:37.272Z,-0.01
2017-01-11T00:13:37.234Z,-0.07
2017-01-11T00:14:37.573Z,0.02
2017-01-11T00:15:37.529Z,-0.04
2017-01-11T00:16:37.487Z,-0.03
2017-01-11T00:17:37.442Z,-0.05
2017-01-11T00:18:36.631Z,-0.07
2017-01-11T00:19:37.358Z,-0.05
2017-01-11T00:20:36.924Z,-0.08
2017-01-11T00:21:36.883Z,-0.01
2017-01-11T00:22:37.239Z,-0.05
2017-01-11T00:23:37.190Z,0
2017-01-11T00:24:36.757Z,0.02
2017-01-11T00:25:36.718Z,0.04
2017-01-11T00:26:37.060Z,0.08
2017-01-11T00:27:37.020Z,0.07
2017-01-11T00:28:36.976Z,0.02
2017-01-11T00:29:36.932Z,0.14
2017-01-11T00:30:36.505Z,0.1
2017-01-11T00:31:36.850Z,0.17
2017-01-11T00:32:36.808Z,0.13
2017-01-11T00:33:36.410Z,0.2
2017-01-11T00:34:36.721Z,0.13
2017-01-11T00:35:36.678Z,0.03
2017-01-11T00:36:36.642Z,0.07
2017-01-11T00:37:36.589Z,0.14
2017-01-11T00:38:36.549Z,0.23
2017-01-11T00:39:36.506Z,0.13
2017-01-11T00:40:36.463Z,0.21
2017-01-11T00:41:36.038Z,0.13
2017-01-11T00:42:35.993Z,0.26
2017-01-11T00:43:36.342Z,0.17
2017-01-11T00:44:36.292Z,0.23
2017-01-11T00:45:35.483Z,0.2
2017-01-11T00:46:36.212Z,0.18
2017-01-11T00:47:35.780Z,0.23
2017-01-11T00:48:35.751Z,0.28
2017-01-11T00:49:36.085Z,0.24
2017-01-11T00:50:36.049Z,0.21
2017-01-11T00:51:35.994Z,0.18
2017-01-11T00:52:35.962Z,0.2
2017-01-11T00:53:35.912Z,0.29
2017-01-11T00:54:35.870Z,0.23
2017-01-11T00:55:35.449Z,0.31
2017-01-11T00:56:35.398Z,0.28
2017-01-11T00:57:35.745Z,0.26
2017-01-11T00:58:35.315Z,0.32
2017-01-11T00:59:35.272Z,0.18
2017-01-11T01:00:35.621Z,0.31
2017-01-11T01:01:35.576Z,0.29
2017-01-11T01:02:35.539Z,0.26
2017-01-11T01:03:34.717Z,0.28
2017-01-11T01:04:35.448Z,0.15
2017-01-11T01:05:35.405Z,0.28
2017-01-11T01:06:35.363Z,0.32
2017-01-11T01:07:35.318Z,0.2
2017-01-11T01:08:35.310Z,0.32
2017-01-11T01:09:35.236Z,0.31
2017-01-11T01:10:34.805Z,0.31
2017-01-11T01:11:35.163Z,0.29
2017-01-11T01:12:35.113Z,0.23
2017-01-11T01:13:35.069Z,0.2
2017-01-11T01:14:34.637Z,0.17
2017-01-11T01:15:34.597Z,0.21
2017-01-11T01:16:34.943Z,0.11
2017-01-11T01:17:34.896Z,0.13
2017-01-11T01:18:34.850Z,0.13
2017-01-11T01:19:34.816Z,0.07
2017-01-11T01:20:34.768Z,0.2
2017-01-11T01:21:34.351Z,0.07
2017-01-11T01:22:34.685Z,0.11
2017-01-11T01:23:34.646Z,0.21
2017-01-11T01:24:34.214Z,0.18
2017-01-11T01:25:34.555Z,0.13
2017-01-11T01:26:34.129Z,0.21
2017-01-11T01:27:34.473Z,0.13
2017-01-11T01:28:34.432Z,0.13
2017-01-11T01:29:34.393Z,0.26
2017-01-11T01:30:34.345Z,0.17
2017-01-11T01:31:34.334Z,0.21
2017-01-11T01:32:33.882Z,0.21
2017-01-11T01:33:33.832Z,0.13
2017-01-11T01:34:33.817Z,0.1
2017-01-11T01:35:34.133Z,0.26
2017-01-11T01:36:33.706Z,0.2
2017-01-11T01:37:33.661Z,0.14
2017-01-11T01:38:33.622Z,0.14
2017-01-11T01:39:33.961Z,0.24
2017-01-11T01:40:33.921Z,0.18
2017-01-11T01:41:33.880Z,0.26
2017-01-11T01:42:33.449Z,0.23
2017-01-11T01:43:33.796Z,0.08
2017-01-11T01:44:33.754Z,0.18
2017-01-11T01:45:33.710Z,0.13
2017-01-11T01:46:33.668Z,0.23
2017-01-11T01:47:33.242Z,0.23
2017-01-11T01:48:33.583Z,0.18
2017-01-11T01:49:33.538Z,0.1
2017-01-11T01:50:33.493Z,0.14
2017-01-11T01:51:33.457Z,0.14
2017-01-11T01:52:33.027Z,0.18
2017-01-11T01:53:33.375Z,0.2
2017-01-11T01:54:32.942Z,0.17
2017-01-11T01:55:32.902Z,0.14
2017-01-11T01:56:33.243Z,0.11
2017-01-11T01:57:33.201Z,0.17
2017-01-11T01:58:33.154Z,0.2
2017-01-11T01:59:32.725Z,0.24
2017-01-11T02:00:33.069Z,0.21
2017-01-11T02:01:33.030Z,0.21
2017-01-11T02:02:32.986Z,0.23
2017-01-11T02:03:32.941Z,0.18
2017-01-11T02:04:32.519Z,0.33
2017-01-11T02:05:32.484Z,0.17
2017-01-11T02:06:32.432Z,0.28
2017-01-11T02:07:32.781Z,0.26
2017-01-11T02:08:32.348Z,0.28
2017-01-11T02:09:32.304Z,0.29
2017-01-11T02:10:31.877Z,0.35
2017-01-11T02:11:32.607Z,0.28
2017-01-11T02:12:32.563Z,0.32
2017-01-11T02:13:31.748Z,0.28
2017-01-11T02:14:32.478Z,0.28
2017-01-11T02:15:32.439Z,0.24
2017-01-11T02:16:32.388Z,0.28
2017-01-11T02:17:31.966Z,0.31
2017-01-11T02:18:32.305Z,0.33
2017-01-11T02:19:32.261Z,0.31
2017-01-11T02:20:32.219Z,0.32
2017-01-11T02:21:32.174Z,0.2
2017-01-11T02:22:31.747Z,0.2
2017-01-11T02:23:32.095Z,0.21
2017-01-11T02:24:31.671Z,0.2
2017-01-11T02:25:32.017Z,0.2
2017-01-11T02:26:31.967Z,0.23
2017-01-11T02:27:31.924Z,0.21
2017-01-11T02:28:31.886Z,0.28
2017-01-11T02:29:31.836Z,0.23
2017-01-11T02:30:31.412Z,0.24
2017-01-11T02:31:31.751Z,0.24
2017-01-11T02:32:31.711Z,0.32
2017-01-11T02:33:31.666Z,0.28
2017-01-11T02:34:31.640Z,0.23
2017-01-11T02:35:31.195Z,0.26
2017-01-11T02:36:31.154Z,0.32
2017-01-11T02:37:31.500Z,0.28
2017-01-11T02:38:31.068Z,0.32
2017-01-11T02:39:31.415Z,0.28
2017-01-11T02:40:31.367Z,0.26
2017-01-11T02:41:31.330Z,0.28
2017-01-11T02:42:31.285Z,0.44
2017-01-11T02:43:31.244Z,0.24
2017-01-11T02:44:31.201Z,0.36
2017-01-11T02:45:31.158Z,0.35
2017-01-11T02:46:31.117Z,0.41
2017-01-11T02:47:31.077Z,0.41
2017-01-11T02:48:31.029Z,0.44
2017-01-11T02:49:30.987Z,0.46
2017-01-11T02:50:30.946Z,0.41
2017-01-11T02:51:30.906Z,0.42
2017-01-11T02:52:30.862Z,0.5
2017-01-11T02:53:30.457Z,0.46
2017-01-11T02:54:30.781Z,0.42
2017-01-11T02:55:30.733Z,0.49
2017-01-11T02:56:30.691Z,0.46
2017-01-11T02:57:30.650Z,0.42
2017-01-11T02:58:30.614Z,0.49
2017-01-11T02:59:30.177Z,0.39
2017-01-11T03:00:30.524Z,0.42
2017-01-11T03:01:30.095Z,0.51
2017-01-11T03:02:30.448Z,0.47
2017-01-11T03:03:30.399Z,0.46
2017-01-11T03:04:29.969Z,0.47
2017-01-11T03:05:30.312Z,0.46
2017-01-11T03:06:30.270Z,0.46
2017-01-11T03:07:30.227Z,0.46
2017-01-11T03:08:30.184Z,0.47
2017-01-11T03:09:30.147Z,0.44
2017-01-11T03:10:29.720Z,0.42
2017-01-11T03:11:30.072Z,0.5
2017-01-11T03:12:29.631Z,0.47
2017-01-11T03:13:29.203Z,0.42
2017-01-11T03:14:29.932Z,0.53
2017-01-11T03:15:29.891Z,0.53
2017-01-11T03:16:29.462Z,0.44
2017-01-11T03:17:29.803Z,0.44
2017-01-11T03:18:29.765Z,0.5
2017-01-11T03:19:29.337Z,0.49
2017-01-11T03:20:29.684Z,0.42
2017-01-11T03:21:29.638Z,0.49
2017-01-11T03:22:29.204Z,0.5
2017-01-11T03:23:29.551Z,0.46
2017-01-11T03:24:29.514Z,0.51
2017-01-11T03:25:29.468Z,0.57
2017-01-11T03:26:29.045Z,0.5
2017-01-11T03:27:29.380Z,0.47
2017-01-11T03:28:29.343Z,0.47
2017-01-11T03:29:29.298Z,0.51
2017-01-11T03:30:28.921Z,0.47
2017-01-11T03:31:29.217Z,0.5
2017-01-11T03:32:29.175Z,0.46
2017-01-11T03:33:29.137Z,0.5
2017-01-11T03:34:29.116Z,0.47
2017-01-11T03:35:29.045Z,0.5
2017-01-11T03:36:29.003Z,0.44
2017-01-11T03:37:28.964Z,0.49
2017-01-11T03:38:28.923Z,0.51
2017-01-11T03:39:28.496Z,0.47
2017-01-11T03:40:28.842Z,0.53
2017-01-11T03:41:28.803Z,0.47
2017-01-11T03:42:28.758Z,0.58
2017-01-11T03:43:28.323Z,0.57
2017-01-11T03:44:28.284Z,0.66
2017-01-11T03:45:28.627Z,0.66
2017-01-11T03:46:28.582Z,0.65
2017-01-11T03:47:28.539Z,0.65
2017-01-11T03:48:28.508Z,0.6
2017-01-11T03:49:28.458Z,0.65
2017-01-11T03:50:28.420Z,0.65
2017-01-11T03:51:27.601Z,0.62
2017-01-11T03:52:28.331Z,0.61
2017-01-11T03:53:27.905Z,0.61
2017-01-11T03:54:28.245Z,0.61
2017-01-11T03:55:28.212Z,0.65
2017-01-11T03:56:28.170Z,0.66
2017-01-11T03:57:27.739Z,0.68
2017-01-11T03:58:28.081Z,0.62
2017-01-11T03:59:28.054Z,0.61
2017-01-11T04:00:27.996Z,0.61
2017-01-11T04:01:27.958Z,0.69
2017-01-11T04:02:27.524Z,0.75
2017-01-11T04:03:27.488Z,0.66
2017-01-11T04:04:27.826Z,0.68
2017-01-11T04:05:27.787Z,0.68
2017-01-11T04:06:27.749Z,0.68
2017-01-11T04:07:27.699Z,0.65
2017-01-11T04:08:27.660Z,0.66
2017-01-11T04:09:27.611Z,0.66
2017-01-11T04:10:27.575Z,0.73
2017-01-11T04:11:27.150Z,0.65
2017-01-11T04:12:27.493Z,0.65
2017-01-11T04:13:27.069Z,0.73
2017-01-11T04:14:27.405Z,0.65
2017-01-11T04:15:27.364Z,0.66
2017-01-11T04:16:27.322Z,0.7
2017-01-11T04:17:27.286Z,0.62
2017-01-11T04:18:26.851Z,0.7
2017-01-11T04:19:27.196Z,0.7
2017-01-11T04:20:27.176Z,0.73
2017-01-11T04:21:27.113Z,0.66
2017-01-11T04:22:27.072Z,0.68
2017-01-11T04:23:27.028Z,0.65
2017-01-11T04:24:26.988Z,0.66
2017-01-11T04:25:26.556Z,0.65
2017-01-11T04:26:26.900Z,0.68
2017-01-11T04:27:26.861Z,0.68
2017-01-11T04:28:26.820Z,0.78
2017-01-11T04:29:26.774Z,0.6
2017-01-11T04:30:26.736Z,0.7
2017-01-11T04:31:25.928Z,0.66
2017-01-11T04:32:26.648Z,0.65
2017-01-11T04:33:26.221Z,0.73
2017-01-11T04:34:26.563Z,0.68
2017-01-11T04:35:26.532Z,0.7
2017-01-11T04:36:26.102Z,0.68
2017-01-11T04:37:26.053Z,0.69
2017-01-11T04:38:26.399Z,0.75
2017-01-11T04:39:26.368Z,0.78
2017-01-11T04:40:26.319Z,0.72
2017-01-11T04:41:26.270Z,0.73
2017-01-11T04:42:25.840Z,0.68
2017-01-11T04:43:25.804Z,0.76
2017-01-11T04:44:26.145Z,0.78
2017-01-11T04:45:26.103Z,0.76
2017-01-11T04:46:26.060Z,0.76
2017-01-11T04:47:26.033Z,0.7
2017-01-11T04:48:25.979Z,0.73
2017-01-11T04:49:25.936Z,0.72
2017-01-11T04:50:25.892Z,0.73
2017-01-11T04:51:25.462Z,0.78
2017-01-11T04:52:25.811Z,0.73
2017-01-11T04:53:25.009Z,0.73
2017-01-11T04:54:25.721Z,0.72
2017-01-11T04:55:25.678Z,0.73
2017-01-11T04:56:25.642Z,0.84
2017-01-11T04:57:25.595Z,0.73
2017-01-11T04:58:25.556Z,0.79
2017-01-11T04:59:25.517Z,0.72
2017-01-11T05:00:25.085Z,0.78
2017-01-11T05:01:25.429Z,0.86
2017-01-11T05:02:25.000Z,0.83
2017-01-11T05:03:24.960Z,0.88
2017-01-11T05:04:25.301Z,0.75
2017-01-11T05:05:24.872Z,0.76
2017-01-11T05:06:24.831Z,0.88
2017-01-11T05:07:25.178Z,0.88
2017-01-11T05:08:24.748Z,0.84
2017-01-11T05:09:24.709Z,0.9
2017-01-11T05:10:24.673Z,0.9
2017-01-11T05:11:25.007Z,0.88
2017-01-11T05:12:24.963Z,0.86
2017-01-11T05:13:24.927Z,0.84
2017-01-11T05:14:24.880Z,0.84
2017-01-11T05:15:24.839Z,0.79
2017-01-11T05:16:24.412Z,0.9
2017-01-11T05:17:24.758Z,0.83
2017-01-11T05:18:24.713Z,0.79
2017-01-11T05:19:24.671Z,0.9
2017-01-11T05:20:24.630Z,0.93
2017-01-11T05:21:24.584Z,0.83
2017-01-11T05:22:24.543Z,0.87
2017-01-11T05:23:24.501Z,0.91
2017-01-11T05:24:24.461Z,0.87
2017-01-11T05:25:24.421Z,0.9
2017-01-11T05:26:24.376Z,0.88
2017-01-11T05:27:24.331Z,0.84
2017-01-11T05:28:24.290Z,0.84
2017-01-11T05:29:24.249Z,0.87
2017-01-11T05:30:23.828Z,0.87
2017-01-11T05:31:24.168Z,0.8
2017-01-11T05:32:23.739Z,0.83
2017-01-11T05:33:24.080Z,0.79
2017-01-11T05:34:24.039Z,0.76
2017-01-11T05:35:23.224Z,0.84
2017-01-11T05:36:23.953Z,0.9
2017-01-11T05:37:23.527Z,0.84
2017-01-11T05:38:23.484Z,0.84
2017-01-11T05:39:23.836Z,0.88
2017-01-11T05:40:23.789Z,0.83
2017-01-11T05:41:23.758Z,0.86
2017-01-11T05:42:23.701Z,0.87
2017-01-11T05:43:23.660Z,0.88
2017-01-11T05:44:23.616Z,0.84
2017-01-11T05:45:23.576Z,0.88
2017-01-11T05:46:23.147Z,0.79
2017-01-11T05:47:23.489Z,0.87
2017-01-11T05:48:23.446Z,0.84
2017-01-11T05:49:23.403Z,0.88
2017-01-11T05:50:23.368Z,0.94
2017-01-11T05:51:23.325Z,0.93
2017-01-11T05:52:23.279Z,0.86
2017-01-11T05:53:23.237Z,0.87
2017-01-11T05:54:23.195Z,0.97
2017-01-11T05:55:23.152Z,0.88
2017-01-11T05:56:23.117Z,0.91
2017-01-11T05:57:23.073Z,0.91
2017-01-11T05:58:23.030Z,0.9
2017-01-11T05:59:22.990Z,0.9
2017-01-11T06:00:22.941Z,0.93
2017-01-11T06:01:22.902Z,0.94
2017-01-11T06:02:22.861Z,0.91
2017-01-11T06:03:22.433Z,0.9
2017-01-11T06:04:22.390Z,0.88
2017-01-11T06:05:22.347Z,0.96
2017-01-11T06:06:22.692Z,0.97
2017-01-11T06:07:22.647Z,0.97
2017-01-11T06:08:22.611Z,0.91
2017-01-11T06:09:22.567Z,0.97
2017-01-11T06:10:22.521Z,0.93
2017-01-11T06:11:22.487Z,0.94
2017-01-11T06:12:22.437Z,0.93
2017-01-11T06:13:22.396Z,0.96
2017-01-11T06:14:22.356Z,0.93
2017-01-11T06:15:22.310Z,0.96
2017-01-11T06:16:21.887Z,0.93
2017-01-11T06:17:22.226Z,0.93
2017-01-11T06:18:22.185Z,0.91
2017-01-11T06:19:22.143Z,0.97
2017-01-11T06:20:22.102Z,0.93
2017-01-11T06:21:22.064Z,0.91
2017-01-11T06:22:22.015Z,0.94
2017-01-11T06:23:21.977Z,0.91
2017-01-11T06:24:21.559Z,0.94
2017-01-11T06:25:22.212Z,0.9
2017-01-11T06:26:21.849Z,0.96
2017-01-11T06:27:21.805Z,0.91
2017-01-11T06:28:21.762Z,0.87
2017-01-11T06:29:21.721Z,0.93
2017-01-11T06:30:21.296Z,0.87
2017-01-11T06:31:21.261Z,0.87
2017-01-11T06:32:21.597Z,0.84
2017-01-11T06:33:21.560Z,0.87
2017-01-11T06:34:21.126Z,0.79
2017-01-11T06:35:21.471Z,0.84
2017-01-11T06:36:21.042Z,0.84
2017-01-11T06:37:21.387Z,0.84
2017-01-11T06:38:21.344Z,0.79
2017-01-11T06:39:21.302Z,0.76
2017-01-11T06:40:20.897Z,0.72
2017-01-11T06:41:21.217Z,0.75
2017-01-11T06:42:21.177Z,0.86
2017-01-11T06:43:20.749Z,0.78
2017-01-11T06:44:21.090Z,0.75
2017-01-11T06:45:20.278Z,0.76
2017-01-11T06:46:20.627Z,0.79
2017-01-11T06:47:20.975Z,0.79
2017-01-11T06:48:20.928Z,0.76
2017-01-11T06:49:20.113Z,0.83
2017-01-11T06:50:20.842Z,0.84
2017-01-11T06:51:20.798Z,0.75
2017-01-11T06:52:20.763Z,0.86
2017-01-11T06:53:20.714Z,0.84
2017-01-11T06:54:20.670Z,0.87
2017-01-11T06:55:20.632Z,0.83
2017-01-11T06:56:20.201Z,0.8
2017-01-11T06:57:20.544Z,0.86
2017-01-11T06:58:20.500Z,0.9
2017-01-11T06:59:20.460Z,0.78
2017-01-11T07:00:20.429Z,0.83
2017-01-11T07:01:20.384Z,0.76
2017-01-11T07:02:19.976Z,0.73
2017-01-11T07:03:20.291Z,0.87
2017-01-11T07:04:20.272Z,0.87
2017-01-11T07:05:19.820Z,0.8
2017-01-11T07:06:20.166Z,0.75
2017-01-11T07:07:20.130Z,0.86
2017-01-11T07:08:19.695Z,0.75
2017-01-11T07:09:20.038Z,0.86
2017-01-11T07:10:20.009Z,0.72
2017-01-11T07:11:19.960Z,0.86
2017-01-11T07:13:19.489Z,0.87
2017-01-11T07:14:19.441Z,0.84
2017-01-11T07:15:19.790Z,0.88
2017-01-11T07:16:19.746Z,0.91
2017-01-11T07:17:19.702Z,0.83
2017-01-11T07:18:19.281Z,0.84
2017-01-11T07:19:19.631Z,0.84
2017-01-11T07:20:19.577Z,0.87
2017-01-11T07:21:19.533Z,0.96
2017-01-11T07:22:19.507Z,0.9
2017-01-11T07:23:19.066Z,0.94
2017-01-11T07:24:19.409Z,0.96
2017-01-11T07:25:19.365Z,0.96
2017-01-11T07:26:19.329Z,0.9
2017-01-11T07:27:19.282Z,0.93
2017-01-11T07:28:19.673Z,0.91
2017-01-11T07:29:19.200Z,0.96
2017-01-11T07:30:18.773Z,0.91
2017-01-11T07:31:19.120Z,0.96
2017-01-11T07:32:19.070Z,0.93
2017-01-11T07:33:19.029Z,0.9
2017-01-11T07:34:18.986Z,0.98
2017-01-11T07:35:18.560Z,0.97
2017-01-11T07:36:18.905Z,1.06
2017-01-11T07:37:18.863Z,0.96
2017-01-11T07:38:18.437Z,1
2017-01-11T07:39:18.783Z,1.05
2017-01-11T07:40:18.744Z,1.02
2017-01-11T07:41:18.693Z,1.11
2017-01-11T07:42:18.653Z,1.04
2017-01-11T07:43:18.610Z,1.09
2017-01-11T07:44:18.197Z,1.11
2017-01-11T07:45:18.528Z,1.14
2017-01-11T07:46:18.487Z,1.16
2017-01-11T07:47:18.459Z,1.2
2017-01-11T07:48:18.403Z,1.14
2017-01-11T07:49:17.972Z,1.27
2017-01-11T07:50:17.957Z,1.24
2017-01-11T07:51:18.271Z,1.26
2017-01-11T07:52:18.234Z,1.24
2017-01-11T07:53:18.188Z,1.27
2017-01-11T07:54:17.764Z,1.16
2017-01-11T07:55:17.720Z,1.16
2017-01-11T07:56:18.071Z,1.2
2017-01-11T07:57:18.058Z,1.3
2017-01-11T07:58:17.981Z,1.23
2017-01-11T07:59:17.941Z,1.34
2017-01-11T08:00:17.511Z,1.3
2017-01-11T08:01:17.859Z,1.33
2017-01-11T08:02:17.434Z,1.4
2017-01-11T08:03:17.773Z,1.29
2017-01-11T08:04:17.728Z,1.34
2017-01-11T08:05:17.687Z,1.27
2017-01-11T08:06:17.650Z,1.29
2017-01-11T08:07:17.244Z,1.4
2017-01-11T08:08:17.561Z,1.34
2017-01-11T08:09:17.527Z,1.37
2017-01-11T08:10:17.482Z,1.41
2017-01-11T08:11:17.443Z,1.41
2017-01-11T08:12:17.011Z,1.36
2017-01-11T08:13:17.352Z,1.48
2017-01-11T08:14:17.314Z,1.47
2017-01-11T08:15:17.269Z,1.45
2017-01-11T08:16:16.855Z,1.58
2017-01-11T08:17:17.186Z,1.62
2017-01-11T08:18:17.148Z,1.59
2017-01-11T08:19:17.106Z,1.59
2017-01-11T08:20:16.675Z,1.54
2017-01-11T08:21:17.024Z,1.55
2017-01-11T08:22:16.595Z,1.55
2017-01-11T08:23:16.171Z,1.54
2017-01-11T08:24:16.896Z,1.66
2017-01-11T08:25:16.858Z,1.59
2017-01-11T08:26:16.813Z,1.62
2017-01-11T08:27:16.768Z,1.65
2017-01-11T08:28:16.726Z,1.63
2017-01-11T08:29:16.686Z,1.65
2017-01-11T08:30:16.647Z,1.63
2017-01-11T08:31:16.218Z,1.73
2017-01-11T08:32:16.172Z,1.7
2017-01-11T08:33:16.133Z,1.73
2017-01-11T08:34:16.482Z,1.69
2017-01-11T08:35:16.051Z,1.76
2017-01-11T08:36:16.396Z,1.81
2017-01-11T08:37:15.971Z,1.77
2017-01-11T08:38:16.312Z,1.8
2017-01-11T08:39:16.272Z,1.83
2017-01-11T08:40:16.234Z,1.8
2017-01-11T08:41:15.800Z,1.77
2017-01-11T08:42:16.146Z,1.81
2017-01-11T08:43:16.102Z,1.81
2017-01-11T08:44:15.677Z,1.79
2017-01-11T08:45:16.029Z,1.9
2017-01-11T08:46:15.978Z,1.99
2017-01-11T08:47:15.935Z,1.99
2017-01-11T08:48:15.537Z,1.95
2017-01-11T08:49:15.856Z,1.99
2017-01-11T08:50:15.424Z,1.98
2017-01-11T08:51:15.775Z,2.03
2017-01-11T08:52:15.733Z,2.07
2017-01-11T08:53:15.690Z,2.17
2017-01-11T08:54:15.653Z,2.14
2017-01-11T08:55:14.836Z,2.17
2017-01-11T08:56:15.564Z,2.16
2017-01-11T08:57:15.523Z,2.34
2017-01-11T08:58:15.487Z,2.27
2017-01-11T08:59:15.445Z,2.35
2017-01-11T09:00:15.402Z,2.34
2017-01-11T09:01:15.357Z,2.27
2017-01-11T09:02:15.313Z,2.36
2017-01-11T09:03:15.274Z,2.43
2017-01-11T09:04:15.239Z,2.56
2017-01-11T09:05:15.208Z,2.54
2017-01-11T09:06:15.149Z,2.63
2017-01-11T09:07:15.109Z,2.69
2017-01-11T09:08:15.075Z,2.67
2017-01-11T09:09:15.030Z,2.81
2017-01-11T09:10:14.989Z,2.87
2017-01-11T09:11:14.948Z,2.84
2017-01-11T09:12:14.907Z,2.96
2017-01-11T09:13:14.476Z,3
2017-01-11T09:14:14.822Z,3.08
2017-01-11T09:15:14.780Z,3.15
2017-01-11T09:16:14.741Z,3.2
2017-01-11T09:17:14.700Z,3.24
2017-01-11T09:18:14.657Z,3.21
2017-01-11T09:19:14.622Z,3.33
2017-01-11T09:20:14.573Z,3.42
2017-01-11T09:21:14.537Z,3.48
2017-01-11T09:22:14.109Z,3.57
2017-01-11T09:23:14.457Z,3.65
2017-01-11T09:24:14.411Z,3.72
2017-01-11T09:25:14.375Z,3.69
2017-01-11T09:26:14.338Z,3.76
2017-01-11T09:27:13.929Z,3.84
2017-01-11T09:28:14.251Z,3.83
2017-01-11T09:29:14.212Z,3.96
2017-01-11T09:30:14.169Z,4.05
2017-01-11T09:31:14.137Z,4.16
2017-01-11T09:32:13.707Z,4.15
2017-01-11T09:33:14.047Z,4.24
2017-01-11T09:34:14.008Z,4.36
2017-01-11T09:35:13.967Z,4.55
2017-01-11T09:36:13.925Z,4.84
2017-01-11T09:37:13.886Z,5.18
2017-01-11T09:38:13.846Z,5.46
2017-01-11T09:39:13.424Z,5.76
2017-01-11T09:40:13.385Z,6.11
2017-01-11T09:41:13.758Z,6.21
2017-01-11T09:42:13.690Z,6.21
2017-01-11T09:43:13.272Z,6.25
2017-01-11T09:44:13.610Z,6.21
2017-01-11T09:45:13.185Z,6.19
2017-01-11T09:46:12.761Z,6.15
2017-01-11T09:47:13.491Z,6.08
2017-01-11T09:48:13.067Z,6.06
2017-01-11T09:49:13.413Z,5.99
2017-01-11T09:50:13.375Z,5.99
2017-01-11T09:51:12.954Z,5.91
2017-01-11T09:52:12.914Z,5.89
2017-01-11T09:53:13.286Z,5.76
2017-01-11T09:54:12.835Z,5.81
2017-01-11T09:55:13.182Z,5.78
2017-01-11T09:56:13.148Z,5.75
2017-01-11T09:57:13.106Z,5.72
2017-01-11T09:58:13.069Z,5.67
2017-01-11T09:59:12.644Z,5.67
2017-01-11T10:00:12.990Z,5.56
2017-01-11T10:01:12.956Z,5.58
2017-01-11T10:02:12.923Z,5.53
2017-01-11T10:03:12.874Z,5.53
2017-01-11T10:04:12.838Z,5.57
2017-01-11T10:05:12.804Z,5.51
2017-01-11T10:06:12.374Z,5.53
2017-01-11T10:07:12.338Z,5.48
2017-01-11T10:08:12.712Z,5.48
2017-01-11T10:09:12.645Z,5.45
2017-01-11T10:10:12.601Z,5.46
2017-01-11T10:11:12.569Z,5.48
2017-01-11T10:12:12.530Z,5.65
2017-01-11T10:13:12.488Z,5.72
2017-01-11T10:14:12.463Z,5.72
2017-01-11T10:15:12.412Z,5.85
2017-01-11T10:16:12.373Z,5.91
2017-01-11T10:17:12.345Z,6.08
2017-01-11T10:18:12.303Z,6.21
2017-01-11T10:19:12.262Z,6.4
2017-01-11T10:20:12.223Z,6.44
2017-01-11T10:21:12.182Z,6.51
2017-01-11T10:22:11.759Z,6.49
2017-01-11T10:23:12.109Z,6.46
2017-01-11T10:24:12.066Z,6.43
2017-01-11T10:25:12.032Z,6.28
2017-01-11T10:26:11.605Z,6.17
2017-01-11T10:27:11.957Z,6.21
2017-01-11T10:28:11.912Z,6.21
2017-01-11T10:29:11.877Z,6.22
2017-01-11T10:30:11.838Z,6.28
2017-01-11T10:31:11.414Z,6.22
2017-01-11T10:32:11.378Z,6.33
2017-01-11T10:33:11.721Z,6.34
2017-01-11T10:34:11.301Z,6.37
2017-01-11T10:35:11.262Z,6.25
2017-01-11T10:36:11.226Z,6.33
2017-01-11T10:37:11.571Z,6.28
2017-01-11T10:38:11.570Z,6.21
2017-01-11T10:39:10.730Z,6.11
2017-01-11T10:40:11.461Z,6.11
2017-01-11T10:41:11.035Z,6.03
2017-01-11T10:42:11.382Z,6.06
2017-01-11T10:43:10.960Z,5.97
2017-01-11T10:44:11.313Z,5.99
2017-01-11T10:45:10.885Z,5.96
2017-01-11T10:46:10.853Z,5.94
2017-01-11T10:47:11.195Z,5.85
2017-01-11T10:48:11.157Z,5.78
2017-01-11T10:49:11.114Z,5.72
2017-01-11T10:50:11.079Z,5.68
2017-01-11T10:51:10.655Z,5.6
2017-01-11T10:52:10.619Z,5.46
2017-01-11T10:53:10.965Z,5.48
2017-01-11T10:54:10.541Z,5.48
2017-01-11T10:55:10.887Z,5.35
2017-01-11T10:56:10.857Z,5.46
2017-01-11T10:57:10.814Z,5.46
2017-01-11T10:58:10.770Z,5.43
2017-01-11T10:59:10.736Z,5.35
2017-01-11T11:00:10.697Z,5.36
2017-01-11T11:01:09.895Z,5.46
2017-01-11T11:02:10.617Z,5.56
2017-01-11T11:03:10.194Z,5.42
2017-01-11T11:04:10.548Z,5.4
2017-01-11T11:05:10.118Z,5.45
2017-01-11T11:06:10.468Z,5.46
2017-01-11T11:07:10.426Z,5.43
2017-01-11T11:08:10.004Z,5.53
2017-01-11T11:09:10.351Z,5.54
2017-01-11T11:10:10.313Z,5.49
2017-01-11T11:11:10.275Z,5.31
2017-01-11T11:12:10.241Z,5.27
2017-01-11T11:13:10.197Z,5.35
2017-01-11T11:14:10.159Z,5.3
2017-01-11T11:15:09.735Z,5.35
2017-01-11T11:16:10.084Z,5.27
2017-01-11T11:17:10.041Z,5.24
2017-01-11T11:18:09.618Z,5.1
2017-01-11T11:19:09.964Z,4.94
2017-01-11T11:20:09.929Z,4.88
2017-01-11T11:21:09.885Z,4.84
2017-01-11T11:22:09.465Z,4.89
2017-01-11T11:23:09.814Z,4.94
2017-01-11T11:24:09.385Z,4.85
2017-01-11T11:25:09.740Z,4.86
2017-01-11T11:26:09.310Z,4.88
2017-01-11T11:27:09.664Z,4.96
2017-01-11T11:28:09.615Z,4.99
2017-01-11T11:29:09.581Z,4.97
2017-01-11T11:30:09.544Z,5.1
2017-01-11T11:31:09.505Z,5.13
2017-01-11T11:32:09.464Z,5.2
2017-01-11T11:33:09.425Z,5.25
2017-01-11T11:34:08.999Z,5.27
2017-01-11T11:35:09.345Z,5.3
2017-01-11T11:36:08.925Z,5.36
2017-01-11T11:37:09.271Z,5.38
2017-01-11T11:38:09.233Z,5.39
2017-01-11T11:39:09.191Z,5.31
2017-01-11T11:40:09.158Z,5.25
2017-01-11T11:41:09.115Z,5.25
2017-01-11T11:42:08.685Z,5.22
2017-01-11T11:43:08.288Z,5.33
2017-01-11T11:44:08.992Z,5.2
2017-01-11T11:45:08.960Z,5.21
2017-01-11T11:46:08.534Z,5.09
2017-01-11T11:47:08.881Z,4.94
2017-01-11T11:48:08.460Z,5
2017-01-11T11:49:08.803Z,4.88
2017-01-11T11:50:08.377Z,4.88
2017-01-11T11:51:08.726Z,4.85
2017-01-11T11:52:08.691Z,4.75
2017-01-11T11:53:08.648Z,4.7
2017-01-11T11:54:08.606Z,4.66
2017-01-11T11:55:08.592Z,4.52
2017-01-11T11:56:08.529Z,4.54
2017-01-11T11:57:08.491Z,4.59
2017-01-11T11:58:08.067Z,4.44
2017-01-11T11:59:08.407Z,4.58
2017-01-11T12:00:08.376Z,4.42
2017-01-11T12:01:08.335Z,4.4
2017-01-11T12:02:08.297Z,4.36
2017-01-11T12:03:08.253Z,4.26
2017-01-11T12:04:07.832Z,4.32
2017-01-11T12:05:08.174Z,4.16
2017-01-11T12:06:07.749Z,4.26
2017-01-11T12:07:07.711Z,4.27
2017-01-11T12:08:08.054Z,4.2
2017-01-11T12:09:08.014Z,4.08
2017-01-11T12:10:07.593Z,4.08
2017-01-11T12:11:07.946Z,4.02
2017-01-11T12:12:07.893Z,3.87
2017-01-11T12:13:07.859Z,4.02
2017-01-11T12:14:07.821Z,4.02
2017-01-11T12:15:07.779Z,3.87
2017-01-11T12:16:07.351Z,3.9
2017-01-11T12:17:07.313Z,3.9
2017-01-11T12:18:07.303Z,3.88
2017-01-11T12:19:07.235Z,3.86
2017-01-11T12:20:07.577Z,3.83
2017-01-11T12:21:07.542Z,3.8
2017-01-11T12:22:07.112Z,3.84
2017-01-11T12:23:06.691Z,3.91
2017-01-11T12:24:07.429Z,3.84
2017-01-11T12:25:07.381Z,3.79
2017-01-11T12:26:06.961Z,3.72
2017-01-11T12:27:06.914Z,3.69
2017-01-11T12:28:07.264Z,3.7
2017-01-11T12:29:07.219Z,3.69
2017-01-11T12:30:07.181Z,3.69
2017-01-11T12:31:07.135Z,3.78
2017-01-11T12:32:06.719Z,3.75
2017-01-11T12:33:07.058Z,3.75
2017-01-11T12:34:07.019Z,3.62
2017-01-11T12:35:06.591Z,3.75
2017-01-11T12:36:06.938Z,3.75
2017-01-11T12:37:06.125Z,3.8
2017-01-11T12:38:06.473Z,3.83
2017-01-11T12:39:06.049Z,3.97
2017-01-11T12:40:06.012Z,3.96
2017-01-11T12:41:06.373Z,3.94
2017-01-11T12:42:06.312Z,3.94
2017-01-11T12:43:06.654Z,3.96
2017-01-11T12:44:06.618Z,4.02
2017-01-11T12:45:06.575Z,4.02
2017-01-11T12:46:06.539Z,4.11
2017-01-11T12:47:06.494Z,4.02
2017-01-11T12:48:06.070Z,4.06
2017-01-11T12:49:06.025Z,4.09
2017-01-11T12:50:05.999Z,4.12
2017-01-11T12:51:05.951Z,4.09
2017-01-11T12:52:06.294Z,4.04
2017-01-11T12:53:06.254Z,4.02
2017-01-11T12:54:06.219Z,3.96
2017-01-11T12:55:05.785Z,4.11
2017-01-11T12:56:05.752Z,4.06
2017-01-11T12:57:05.322Z,4.02
2017-01-11T12:58:06.069Z,4.04
2017-01-11T12:59:05.631Z,4.04
2017-01-11T13:00:05.973Z,4
2017-01-11T13:01:05.933Z,4.14
2017-01-11T13:02:05.896Z,4.2
2017-01-11T13:03:05.463Z,4.14
2017-01-11T13:04:05.816Z,4.23
2017-01-11T13:05:05.769Z,4.4
2017-01-11T13:06:05.731Z,4.55
2017-01-11T13:07:05.697Z,4.6
2017-01-11T13:08:05.277Z,4.82
2017-01-11T13:09:05.613Z,4.77
2017-01-11T13:10:05.182Z,4.8
2017-01-11T13:11:05.531Z,4.77
2017-01-11T13:12:05.110Z,4.8
2017-01-11T13:13:05.450Z,4.86
2017-01-11T13:14:05.029Z,4.7
2017-01-11T13:15:04.996Z,4.69
2017-01-11T13:16:05.326Z,4.62
2017-01-11T13:17:05.290Z,4.47
2017-01-11T13:18:05.253Z,4.45
2017-01-11T13:19:05.217Z,4.41
2017-01-11T13:20:04.811Z,4.48
2017-01-11T13:21:05.133Z,4.5
2017-01-11T13:22:05.089Z,4.5